Reklama

Seznam meteostanic a jejich METAR

Vyhledat místa podle abecedy:
A B C D E F G H I J K L M N O P Q R S T U V W X Y Z

Filtrovat:

ID stanice:
a/nebo
Název místa (fulltext):
 
Místo (ID)Naposledy načteno 
Rarotonga I (NCRG) 15.12.2019 20:00 UTC Zobrazit METAR
NCRG 152000Z AUTO 11010KT 070V150 9999 SCT027/// BKN034/// BKN047/// 26/19 Q1013
Reykjavik (BIRK) 15.12.2019 20:00 UTC Zobrazit METAR
BIRK 152000Z 35014KT 9999 FEW035 SCT084 01/M06 Q0996 R01/790144
Riga (EVRA) 15.12.2019 18:50 UTC Zobrazit METAR
EVRA 151850Z 18012KT 9999 SCT011 03/01 Q0997 R18/290195 NOSIG
Rimini (LIPR) 15.12.2019 19:50 UTC Zobrazit METAR
LIPR 151950Z 30006KT 7000 SCT060 08/06 Q1018
Riyadh (OERY) 15.12.2019 12:00 UTC Zobrazit METAR
OERY 151200Z 07006KT 8000 FEW040 21/15 Q1016
Road Town (TUPJ) 15.12.2019 20:00 UTC Zobrazit METAR
TUPJ 152000Z 11010KT 19SM FEW021 29/23 A3001 RMK Q1016 VIS30KM
Rodos (LGRP) 15.12.2019 19:50 UTC Zobrazit METAR
LGRP 151950Z VRB03KT CAVOK 16/12 Q1021 NOSIG
Rome (LIRF) 15.12.2019 19:50 UTC Zobrazit METAR
LIRF 151950Z 13009KT 9999 FEW015 SCT030 14/13 Q1019 NOSIG
Roseau (TDCF) 15.12.2019 18:00 UTC Zobrazit METAR
TDCF 151800Z 13007KT 9999 BKN021 30/21 Q1013
Rotterdam (EHRD) 15.12.2019 16:55 UTC Zobrazit METAR
EHRD 151655Z AUTO 22019KT 180V250 9999 NSC 08/04 Q1001 NOSIG
Rzeszow (EPRZ) 15.12.2019 20:00 UTC Zobrazit METAR
EPRZ 152000Z 19019KT CAVOK 07/02 Q1011
Reklama

Počasí na Váš email

Emaily jsou bez reklamy a bez spamu



Odhlásit newsletter

Reklama


Lunární kalendář

  • 19.12.
  • 26.12.
  • 03.01.
  • 10.01.



Reklama


Reklama
Povinné ručení
Reklama



Reklama